createdAt,value
2019-04-21T00:00:31.848Z,4.81
2019-04-21T00:03:08.852Z,4.73
2019-04-21T00:05:53.281Z,4.71
2019-04-21T00:08:41.572Z,4.63
2019-04-21T00:11:05.908Z,4.59
2019-04-21T00:13:27.945Z,4.47
2019-04-21T00:15:53.161Z,4.38
2019-04-21T00:18:29.651Z,4.35
2019-04-21T00:21:09.840Z,4.26
2019-04-21T00:23:42.101Z,4.27
2019-04-21T00:26:16.161Z,4.21
2019-04-21T00:28:54.035Z,4.17
2019-04-21T00:31:18.193Z,4.15
2019-04-21T00:33:34.302Z,4.06
2019-04-21T00:36:07.217Z,4.09
2019-04-21T00:39:02.379Z,4.08
2019-04-21T00:41:23.499Z,3.98
2019-04-21T00:43:46.110Z,3.84
2019-04-21T00:46:10.096Z,3.77
2019-04-21T00:48:53.439Z,3.73
2019-04-21T00:54:04.170Z,3.62
2019-04-21T00:56:27.460Z,3.63
2019-04-21T00:58:59.312Z,3.68
2019-04-21T01:01:27.978Z,3.66
2019-04-21T01:03:57.718Z,3.58
2019-04-21T01:06:33.464Z,3.47
2019-04-21T01:09:01.277Z,3.26
2019-04-21T01:11:34.688Z,3.16
2019-04-21T01:14:05.147Z,3.15
2019-04-21T01:16:37.414Z,3.14
2019-04-21T01:19:01.938Z,3.15
2019-04-21T01:21:14.040Z,3.26
2019-04-21T01:23:42.250Z,3.36
2019-04-21T01:26:28.623Z,3.35
2019-04-21T01:29:00.080Z,3.37
2019-04-21T01:31:36.623Z,3.38
2019-04-21T01:34:08.404Z,3.35
2019-04-21T01:36:35.881Z,3.37
2019-04-21T01:39:18.105Z,3.33
2019-04-21T01:41:43.105Z,3.22
2019-04-21T01:44:07.443Z,3.05
2019-04-21T01:46:33.963Z,3.12
2019-04-21T01:49:06.764Z,3.07
2019-04-21T01:52:02.922Z,3.07
2019-04-21T01:54:33.250Z,3.00
2019-04-21T01:57:02.112Z,2.95
2019-04-21T01:59:26.857Z,3.03
2019-04-21T02:02:08.109Z,2.93
2019-04-21T02:04:41.870Z,2.84
2019-04-21T02:07:10.248Z,2.69
2019-04-21T02:10:00.810Z,2.63
2019-04-21T02:12:13.407Z,2.65
2019-04-21T02:14:50.500Z,2.65
2019-04-21T02:17:17.354Z,2.55
2019-04-21T02:19:45.102Z,2.61
2019-04-21T02:22:19.236Z,2.61
2019-04-21T02:27:19.164Z,2.63
2019-04-21T02:29:47.161Z,2.64
2019-04-21T02:32:24.757Z,2.59
2019-04-21T02:35:12.390Z,2.61
2019-04-21T02:40:04.967Z,2.42
2019-04-21T02:42:37.706Z,2.39
2019-04-21T02:45:09.196Z,2.18
2019-04-21T02:47:48.615Z,2.10
2019-04-21T02:50:13.836Z,2.12
2019-04-21T02:52:53.915Z,2.09
2019-04-21T02:55:10.866Z,1.92
2019-04-21T02:57:43.466Z,1.92
2019-04-21T03:00:28.957Z,1.99
2019-04-21T03:03:06.976Z,2.00
2019-04-21T03:05:45.426Z,2.02
2019-04-21T03:08:18.754Z,2.13
2019-04-21T03:10:53.514Z,2.11
2019-04-21T03:13:31.680Z,2.11
2019-04-21T03:15:59.886Z,2.15
2019-04-21T03:18:28.037Z,2.01
2019-04-21T03:21:00.249Z,2.05
2019-04-21T03:23:29.808Z,2.05
2019-04-21T03:25:52.000Z,2.04
2019-04-21T03:28:30.578Z,2.05
2019-04-21T03:31:32.116Z,2.03
2019-04-21T03:34:18.289Z,1.95
2019-04-21T03:36:37.992Z,1.86
2019-04-21T03:43:44.222Z,1.88
2019-04-21T03:46:05.831Z,2.00
2019-04-21T03:48:45.554Z,1.86
2019-04-21T03:51:15.979Z,1.78
2019-04-21T03:53:41.957Z,1.83
2019-04-21T03:56:14.862Z,1.84
2019-04-21T03:58:54.180Z,1.77
2019-04-21T04:06:45.002Z,1.83
2019-04-21T04:09:21.238Z,1.85
2019-04-21T04:11:58.730Z,1.85
2019-04-21T04:14:26.636Z,1.79
2019-04-21T04:16:59.116Z,1.81
2019-04-21T04:19:30.064Z,1.94
2019-04-21T04:24:33.957Z,1.95
2019-04-21T04:26:55.228Z,1.95
2019-04-21T04:29:26.332Z,2.08
2019-04-21T04:31:47.595Z,2.08
2019-04-21T04:34:47.731Z,2.03
2019-04-21T04:37:05.415Z,2.02
2019-04-21T04:39:42.881Z,2.13
2019-04-21T04:44:54.268Z,2.05
2019-04-21T04:52:31.279Z,2.22
2019-04-21T04:54:55.838Z,2.36
2019-04-21T04:59:53.964Z,2.48
2019-04-21T05:02:27.766Z,2.74
2019-04-21T05:04:56.443Z,2.74
2019-04-21T05:07:47.817Z,2.80
2019-04-21T05:09:58.199Z,2.93
2019-04-21T05:12:22.636Z,3.04
2019-04-21T05:17:37.912Z,3.26
2019-04-21T05:20:08.756Z,3.51
2019-04-21T05:24:52.432Z,3.98
2019-04-21T05:27:29.455Z,4.23
2019-04-21T05:30:19.155Z,4.42
2019-04-21T05:32:46.212Z,4.59
2019-04-21T05:35:24.846Z,4.82
2019-04-21T05:37:47.312Z,5.07
2019-04-21T05:40:19.573Z,5.27
2019-04-21T05:42:52.535Z,5.49
2019-04-21T05:48:11.611Z,6.01
2019-04-21T05:50:32.427Z,6.25
2019-04-21T05:53:00.709Z,6.38
2019-04-21T05:55:51.749Z,6.65
2019-04-21T05:58:02.659Z,6.88
2019-04-21T06:01:06.337Z,7.16
2019-04-21T06:03:15.174Z,7.48
2019-04-21T06:05:53.506Z,7.78
2019-04-21T06:08:13.180Z,8.09
2019-04-21T06:10:47.710Z,8.82
2019-04-21T06:13:18.743Z,9.76
2019-04-21T06:15:49.972Z,10.37
2019-04-21T06:18:21.738Z,10.65
2019-04-21T06:20:49.216Z,10.93
2019-04-21T06:23:20.991Z,11.84
2019-04-21T06:26:19.842Z,12.28
2019-04-21T06:28:28.419Z,12.38
2019-04-21T06:31:05.495Z,12.71
2019-04-21T06:36:31.959Z,13.48
2019-04-21T06:41:32.707Z,13.43
2019-04-21T06:44:09.382Z,14.04
2019-04-21T06:46:35.485Z,14.88
2019-04-21T06:49:02.617Z,15.69
2019-04-21T06:51:35.775Z,15.17
2019-04-21T06:54:09.551Z,15.02
2019-04-21T06:56:45.976Z,15.01
2019-04-21T06:59:21.126Z,15.15
2019-04-21T07:01:45.608Z,15.23
2019-04-21T07:04:18.513Z,15.02
2019-04-21T07:06:42.650Z,14.73
2019-04-21T07:09:20.979Z,15.25
2019-04-21T07:11:44.495Z,14.99
2019-04-21T07:14:25.858Z,15.21
2019-04-21T07:16:46.341Z,15.40
2019-04-21T07:19:27.854Z,15.98
2019-04-21T07:21:51.303Z,16.83
2019-04-21T07:24:44.086Z,17.77
2019-04-21T07:27:03.971Z,17.93
2019-04-21T07:29:39.508Z,17.68
2019-04-21T07:32:11.650Z,18.18
2019-04-21T07:34:38.392Z,19.01
2019-04-21T07:37:13.920Z,19.32
2019-04-21T07:39:40.586Z,19.83
2019-04-21T07:42:09.052Z,20.14
2019-04-21T07:44:37.961Z,20.05
2019-04-21T07:47:17.113Z,20.97
2019-04-21T07:49:53.168Z,22.20
2019-04-21T07:52:28.264Z,23.11
2019-04-21T07:55:08.002Z,24.90
2019-04-21T07:57:18.744Z,25.20
2019-04-21T08:00:06.483Z,26.54
2019-04-21T08:02:22.389Z,26.99
2019-04-21T08:05:02.870Z,27.99
2019-04-21T08:09:57.027Z,27.42
2019-04-21T08:12:25.595Z,26.68
2019-04-21T08:15:00.134Z,26.17
2019-04-21T08:17:34.865Z,25.76
2019-04-21T08:19:53.637Z,25.54
2019-04-21T08:22:32.113Z,26.44
2019-04-21T08:25:06.945Z,25.75
2019-04-21T08:27:35.409Z,25.35
2019-04-21T08:30:04.978Z,24.70
2019-04-21T08:32:46.604Z,23.73
2019-04-21T08:35:34.075Z,22.56
2019-04-21T08:37:37.069Z,22.21
2019-04-21T08:40:14.086Z,22.00
2019-04-21T08:42:38.268Z,22.38
2019-04-21T08:45:07.853Z,22.02
2019-04-21T08:47:39.852Z,21.79
2019-04-21T08:50:11.847Z,21.25
2019-04-21T08:55:19.621Z,20.44
2019-04-21T08:58:03.292Z,20.49
2019-04-21T09:00:26.102Z,20.14
2019-04-21T09:02:55.885Z,19.68
2019-04-21T09:05:26.173Z,19.61
2019-04-21T09:07:57.370Z,19.90
2019-04-21T09:10:28.122Z,19.48
2019-04-21T09:12:58.936Z,19.80
2019-04-21T09:15:32.084Z,19.77
2019-04-21T09:17:53.613Z,19.52
2019-04-21T09:20:46.018Z,19.68
2019-04-21T09:23:11.409Z,19.24
2019-04-21T09:25:48.306Z,19.48
2019-04-21T09:28:11.192Z,19.48
2019-04-21T09:30:26.361Z,19.60
2019-04-21T09:32:59.841Z,19.34
2019-04-21T09:35:31.420Z,19.45
2019-04-21T09:38:11.257Z,19.65
2019-04-21T09:40:37.296Z,19.76
2019-04-21T09:43:04.737Z,19.95
2019-04-21T09:45:30.822Z,19.89
2019-04-21T09:48:06.177Z,20.08
2019-04-21T09:50:34.543Z,19.68
2019-04-21T09:53:14.557Z,19.99
2019-04-21T09:55:43.971Z,19.90
2019-04-21T09:58:18.497Z,19.86
2019-04-21T10:00:45.745Z,20.12
2019-04-21T10:03:11.970Z,19.73
2019-04-21T10:05:38.481Z,19.77
2019-04-21T10:08:08.182Z,19.85
2019-04-21T10:10:36.851Z,20.26
2019-04-21T10:13:05.244Z,20.60
2019-04-21T10:15:33.629Z,20.17
2019-04-21T10:18:15.137Z,20.13
2019-04-21T10:20:44.776Z,20.06
2019-04-21T10:23:15.711Z,20.05
2019-04-21T10:25:48.915Z,20.34
2019-04-21T10:28:28.774Z,20.34
2019-04-21T10:31:02.638Z,20.18
2019-04-21T10:36:44.871Z,20.83
2019-04-21T10:39:19.884Z,21.06
2019-04-21T10:41:53.281Z,21.00
2019-04-21T10:44:25.237Z,21.10
2019-04-21T10:46:56.660Z,21.18
2019-04-21T10:52:57.010Z,20.95
2019-04-21T10:55:44.691Z,20.99
2019-04-21T10:58:08.711Z,21.09
2019-04-21T11:00:39.841Z,20.82
2019-04-21T11:03:26.980Z,20.96
2019-04-21T11:05:56.990Z,21.15
2019-04-21T11:08:32.568Z,20.96
2019-04-21T11:10:56.467Z,21.06
2019-04-21T11:13:30.600Z,21.19
2019-04-21T11:15:59.378Z,21.24
2019-04-21T11:18:30.071Z,21.25
2019-04-21T11:20:58.975Z,21.45
2019-04-21T11:23:27.353Z,21.43
2019-04-21T11:25:55.834Z,21.43
2019-04-21T11:28:31.639Z,21.71
2019-04-21T11:31:00.580Z,21.58
2019-04-21T11:33:29.154Z,21.85
2019-04-21T11:35:59.350Z,21.58
2019-04-21T11:39:00.761Z,21.63
2019-04-21T11:41:19.424Z,21.63
2019-04-21T11:43:48.827Z,21.80
2019-04-21T11:46:18.531Z,21.85
2019-04-21T11:48:48.267Z,21.69
2019-04-21T11:51:17.789Z,21.87
2019-04-21T11:53:46.595Z,21.72
2019-04-21T11:56:15.040Z,21.50
2019-04-21T11:58:43.915Z,21.77
2019-04-21T12:01:13.744Z,21.80
2019-04-21T12:03:42.294Z,21.61
2019-04-21T12:06:19.514Z,21.86
2019-04-21T12:08:51.504Z,22.11
2019-04-21T12:11:21.048Z,22.08
2019-04-21T12:13:49.950Z,22.31
2019-04-21T12:16:19.054Z,22.28
2019-04-21T12:18:47.500Z,22.25
2019-04-21T12:21:32.028Z,22.42
2019-04-21T12:23:52.878Z,22.56
2019-04-21T12:26:32.264Z,22.42
2019-04-21T12:29:03.917Z,22.37
2019-04-21T12:31:49.825Z,22.31
2019-04-21T12:34:19.462Z,22.27
2019-04-21T12:36:48.747Z,22.26
2019-04-21T12:39:21.184Z,22.17
2019-04-21T12:41:50.767Z,22.29
2019-04-21T12:44:20.535Z,22.27
2019-04-21T12:46:53.945Z,22.22
2019-04-21T12:49:22.404Z,22.14
2019-04-21T12:51:51.537Z,22.08
2019-04-21T12:54:23.821Z,22.30
2019-04-21T12:56:53.653Z,22.24
2019-04-21T12:59:24.651Z,22.16
2019-04-21T13:01:53.033Z,22.47
2019-04-21T13:04:23.934Z,22.44
2019-04-21T13:06:52.274Z,22.53
2019-04-21T13:09:22.126Z,22.34
2019-04-21T13:11:59.376Z,22.54
2019-04-21T13:14:29.511Z,22.80
2019-04-21T13:16:59.355Z,22.81
2019-04-21T13:19:29.288Z,23.14
2019-04-21T13:21:58.251Z,22.90
2019-04-21T13:24:26.649Z,22.91
2019-04-21T13:26:58.479Z,22.54
2019-04-21T13:29:32.309Z,22.40
2019-04-21T13:32:06.573Z,22.32
2019-04-21T13:34:35.927Z,22.33
2019-04-21T13:37:05.738Z,22.27
2019-04-21T13:40:19.492Z,22.25
2019-04-21T13:42:30.119Z,22.18
2019-04-21T13:44:56.226Z,22.19
2019-04-21T13:47:24.799Z,22.25
2019-04-21T13:49:56.061Z,22.41
2019-04-21T13:52:24.709Z,22.46
2019-04-21T13:54:53.790Z,22.51
2019-04-21T13:57:22.721Z,22.33
2019-04-21T13:59:51.393Z,22.34
2019-04-21T14:02:20.729Z,22.31
2019-04-21T14:04:49.691Z,22.55
2019-04-21T14:07:18.459Z,22.30
2019-04-21T14:09:55.280Z,22.30
2019-04-21T14:12:17.504Z,22.40
2019-04-21T14:14:46.405Z,22.19
2019-04-21T14:17:15.103Z,22.40
2019-04-21T14:19:43.615Z,22.52
2019-04-21T14:22:13.984Z,22.51
2019-04-21T14:24:43.785Z,22.17
2019-04-21T14:27:12.317Z,22.26
2019-04-21T14:29:41.750Z,22.33
2019-04-21T14:32:11.911Z,22.27
2019-04-21T14:34:40.301Z,22.48
2019-04-21T14:37:08.941Z,22.56
2019-04-21T14:39:49.514Z,22.43
2019-04-21T14:42:08.454Z,22.50
2019-04-21T14:44:38.749Z,22.38
2019-04-21T14:47:11.145Z,22.71
2019-04-21T14:49:47.146Z,22.40
2019-04-21T14:52:17.277Z,22.20
2019-04-21T14:54:48.835Z,21.96
2019-04-21T14:57:18.839Z,21.84
2019-04-21T14:59:48.974Z,21.98
2019-04-21T15:02:18.063Z,22.20
2019-04-21T15:04:46.613Z,22.33
2019-04-21T15:07:17.088Z,22.11
2019-04-21T15:09:46.438Z,21.94
2019-04-21T15:12:16.211Z,22.16
2019-04-21T15:14:44.909Z,21.82
2019-04-21T15:17:15.854Z,22.10
2019-04-21T15:19:54.050Z,21.83
2019-04-21T15:22:14.524Z,22.00
2019-04-21T15:24:44.281Z,21.88
2019-04-21T15:27:18.913Z,21.65
2019-04-21T15:29:46.921Z,21.42
2019-04-21T15:32:16.914Z,21.61
2019-04-21T15:34:48.202Z,21.79
2019-04-21T15:37:17.877Z,21.58
2019-04-21T15:39:48.800Z,21.45
2019-04-21T15:42:16.805Z,21.44
2019-04-21T15:44:45.443Z,21.44
2019-04-21T15:47:15.903Z,21.38
2019-04-21T15:50:00.880Z,21.40
2019-04-21T15:52:25.749Z,21.33
2019-04-21T15:55:03.157Z,21.17
2019-04-21T15:57:34.002Z,20.73
2019-04-21T16:00:08.746Z,20.37
2019-04-21T16:02:37.851Z,20.17
2019-04-21T16:05:10.887Z,20.21
2019-04-21T16:07:40.351Z,20.09
2019-04-21T16:10:26.528Z,19.99
2019-04-21T16:12:43.698Z,19.83
2019-04-21T16:17:55.394Z,19.79
2019-04-21T16:20:25.798Z,19.74
2019-04-21T16:22:54.943Z,19.46
2019-04-21T16:25:23.504Z,19.36
2019-04-21T16:27:53.266Z,19.12
2019-04-21T16:30:23.835Z,19.09
2019-04-21T16:32:52.438Z,18.93
2019-04-21T16:35:25.171Z,18.91
2019-04-21T16:37:55.282Z,18.82
2019-04-21T16:40:23.437Z,18.70
2019-04-21T16:42:54.271Z,18.67
2019-04-21T16:45:25.268Z,18.67
2019-04-21T16:47:55.552Z,18.64
2019-04-21T16:50:27.833Z,18.53
2019-04-21T16:52:59.601Z,18.13
2019-04-21T16:55:42.409Z,18.13
2019-04-21T16:58:19.762Z,18.14
2019-04-21T17:00:57.551Z,17.89
2019-04-21T17:03:19.022Z,17.84
2019-04-21T17:05:48.130Z,17.87
2019-04-21T17:08:19.792Z,17.74
2019-04-21T17:11:00.384Z,17.69
2019-04-21T17:13:20.240Z,17.72
2019-04-21T17:16:10.405Z,17.62
2019-04-21T17:18:39.491Z,17.53
2019-04-21T17:20:57.649Z,17.45
2019-04-21T17:23:25.273Z,17.36
2019-04-21T17:25:55.134Z,17.20
2019-04-21T17:28:25.691Z,16.98
2019-04-21T17:30:58.140Z,16.99
2019-04-21T17:33:28.018Z,16.88
2019-04-21T17:35:54.793Z,16.78
2019-04-21T17:38:25.866Z,16.68
2019-04-21T17:40:53.861Z,16.59
2019-04-21T17:43:23.761Z,16.47
2019-04-21T17:45:53.211Z,16.30
2019-04-21T17:48:25.091Z,16.16
2019-04-21T17:50:59.158Z,16.09
2019-04-21T17:53:38.264Z,15.89
2019-04-21T17:56:26.147Z,15.87
2019-04-21T17:58:53.577Z,15.66
2019-04-21T18:01:32.065Z,15.64
2019-04-21T18:03:58.527Z,15.27
2019-04-21T18:06:20.966Z,15.17
2019-04-21T18:08:54.838Z,14.98
2019-04-21T18:11:18.112Z,14.81
2019-04-21T18:13:47.280Z,14.72
2019-04-21T18:16:26.752Z,14.54
2019-04-21T18:18:46.627Z,14.42
2019-04-21T18:21:41.343Z,14.36
2019-04-21T18:24:19.413Z,14.11
2019-04-21T18:26:52.110Z,13.80
2019-04-21T18:29:19.193Z,13.66
2019-04-21T18:31:54.184Z,13.48
2019-04-21T18:34:42.855Z,13.29
2019-04-21T18:37:16.435Z,13.16
2019-04-21T18:40:18.790Z,12.94
2019-04-21T18:43:15.617Z,12.77
2019-04-21T18:45:53.334Z,12.62
2019-04-21T18:48:09.444Z,12.44
2019-04-21T18:50:55.141Z,12.33
2019-04-21T18:53:39.910Z,12.28
2019-04-21T18:55:58.254Z,12.13
2019-04-21T18:58:22.278Z,12.12
2019-04-21T19:00:53.025Z,11.94
2019-04-21T19:03:28.150Z,11.83
2019-04-21T19:05:56.960Z,11.82
2019-04-21T19:08:38.853Z,11.77
2019-04-21T19:11:14.848Z,11.67
2019-04-21T19:14:17.385Z,11.42
2019-04-21T19:16:34.675Z,11.36
2019-04-21T19:19:32.811Z,11.34
2019-04-21T19:21:24.469Z,11.11
2019-04-21T19:24:10.750Z,11.16
2019-04-21T19:26:49.735Z,11.08
2019-04-21T19:29:16.361Z,11.02
2019-04-21T19:31:39.909Z,10.92
2019-04-21T19:33:59.452Z,10.83
2019-04-21T19:36:21.568Z,10.76
2019-04-21T19:38:59.664Z,10.73
2019-04-21T19:41:32.487Z,10.69
2019-04-21T19:44:13.645Z,10.68
2019-04-21T19:46:38.295Z,10.74
2019-04-21T19:49:22.797Z,10.70
2019-04-21T19:51:36.470Z,10.73
2019-04-21T19:54:03.784Z,10.70
2019-04-21T19:56:26.314Z,10.63
2019-04-21T19:58:57.048Z,10.59
2019-04-21T20:01:25.580Z,10.49
2019-04-21T20:03:57.881Z,10.51
2019-04-21T20:06:39.264Z,10.49
2019-04-21T20:09:13.819Z,10.48
2019-04-21T20:11:41.979Z,10.50
2019-04-21T20:14:44.528Z,10.38
2019-04-21T20:16:45.544Z,10.36
2019-04-21T20:19:02.350Z,10.30
2019-04-21T20:21:26.833Z,10.32
2019-04-21T20:24:02.482Z,10.28
2019-04-21T20:26:36.775Z,10.29
2019-04-21T20:29:15.488Z,10.27
2019-04-21T20:31:47.845Z,10.26
2019-04-21T20:34:31.979Z,10.17
2019-04-21T20:37:00.364Z,10.14
2019-04-21T20:39:16.518Z,10.08
2019-04-21T20:41:48.305Z,10.06
2019-04-21T20:44:29.660Z,10.03
2019-04-21T20:46:55.481Z,10.05
2019-04-21T20:49:21.736Z,10.06
2019-04-21T20:52:08.121Z,9.97
2019-04-21T20:54:33.769Z,9.99
2019-04-21T20:57:03.241Z,9.91
2019-04-21T20:59:25.368Z,9.86
2019-04-21T21:02:05.511Z,9.84
2019-04-21T21:04:30.085Z,9.74
2019-04-21T21:07:20.603Z,9.72
2019-04-21T21:09:41.367Z,9.63
2019-04-21T21:12:22.622Z,9.59
2019-04-21T21:14:36.464Z,9.57
2019-04-21T21:17:26.630Z,9.40
2019-04-21T21:19:45.658Z,9.35
2019-04-21T21:22:10.959Z,9.28
2019-04-21T21:24:53.540Z,9.24
2019-04-21T21:27:29.166Z,9.34
2019-04-21T21:29:56.695Z,9.35
2019-04-21T21:32:32.155Z,9.34
2019-04-21T21:35:13.071Z,9.39
2019-04-21T21:37:42.800Z,9.47
2019-04-21T21:40:21.863Z,9.48
2019-04-21T21:42:35.327Z,9.49
2019-04-21T21:45:08.736Z,9.55
2019-04-21T21:47:57.996Z,9.56
2019-04-21T21:50:11.554Z,9.57
2019-04-21T21:52:50.185Z,9.56
2019-04-21T21:55:21.521Z,9.49
2019-04-21T21:58:01.069Z,9.46
2019-04-21T22:00:37.012Z,9.41
2019-04-21T22:03:16.361Z,9.37
2019-04-21T22:05:46.528Z,9.31
2019-04-21T22:08:06.824Z,9.26
2019-04-21T22:10:43.302Z,9.25
2019-04-21T22:13:14.702Z,9.19
2019-04-21T22:15:49.337Z,9.21
2019-04-21T22:18:33.350Z,9.15
2019-04-21T22:21:02.262Z,9.05
2019-04-21T22:23:34.866Z,8.96
2019-04-21T22:25:49.299Z,8.96
2019-04-21T22:28:17.864Z,8.95
2019-04-21T22:30:50.872Z,8.86
2019-04-21T22:33:22.873Z,8.82
2019-04-21T22:35:59.255Z,8.78
2019-04-21T22:38:38.666Z,8.71
2019-04-21T22:41:10.072Z,8.66
2019-04-21T22:43:44.376Z,8.66
2019-04-21T22:46:14.037Z,8.60
2019-04-21T22:48:53.204Z,8.59
2019-04-21T22:51:23.737Z,8.55
2019-04-21T22:53:50.361Z,8.51
2019-04-21T22:56:23.626Z,8.43
2019-04-21T22:58:48.298Z,8.29
2019-04-21T23:01:28.539Z,8.19
2019-04-21T23:03:55.592Z,8.09
2019-04-21T23:06:25.481Z,7.98
2019-04-21T23:08:51.202Z,7.88
2019-04-21T23:11:20.205Z,7.89
2019-04-21T23:13:55.671Z,7.89
2019-04-21T23:16:26.150Z,7.84
2019-04-21T23:19:11.467Z,7.84
2019-04-21T23:21:51.463Z,7.74
2019-04-21T23:24:14.860Z,7.78
2019-04-21T23:26:48.666Z,7.84
2019-04-21T23:29:31.067Z,7.76
2019-04-21T23:31:55.037Z,7.81
2019-04-21T23:34:13.367Z,7.68
2019-04-21T23:36:48.294Z,7.73
2019-04-21T23:39:15.990Z,7.74
2019-04-21T23:41:46.069Z,7.70
2019-04-21T23:44:13.647Z,7.69
2019-04-21T23:46:40.909Z,7.63
2019-04-21T23:49:22.836Z,7.61
2019-04-21T23:51:50.612Z,7.39
2019-04-21T23:54:13.328Z,7.36
2019-04-21T23:56:45.691Z,7.31
2019-04-21T23:59:17.928Z,7.37
